sensor_id;sensor_type;location;lat;lon;timestamp;pressure;altitude;pressure_sealevel;temperature;humidity
50790;BME280;37287;47.554;7.844;2022-12-07T00:03:56;97944.34;;;2.43;100.00
50790;BME280;37287;47.554;7.844;2022-12-07T00:06:27;97937.47;;;2.42;100.00
50790;BME280;37287;47.554;7.844;2022-12-07T00:08:53;97948.16;;;2.42;100.00
50790;BME280;37287;47.554;7.844;2022-12-07T00:11:21;97943.13;;;2.40;100.00
50790;BME280;37287;47.554;7.844;2022-12-07T00:13:54;97942.66;;;2.38;100.00
50790;BME280;37287;47.554;7.844;2022-12-07T00:16:23;97939.19;;;2.38;100.00
50790;BME280;37287;47.554;7.844;2022-12-07T00:18:54;97947.22;;;2.38;100.00
50790;BME280;37287;47.554;7.844;2022-12-07T00:21:23;97947.53;;;2.36;100.00
50790;BME280;37287;47.554;7.844;2022-12-07T00:23:55;97950.97;;;2.37;100.00
50790;BME280;37287;47.554;7.844;2022-12-07T00:28:56;97934.94;;;2.37;100.00
50790;BME280;37287;47.554;7.844;2022-12-07T00:31:28;97932.59;;;2.35;100.00
50790;BME280;37287;47.554;7.844;2022-12-07T00:33:57;97926.47;;;2.35;100.00
50790;BME280;37287;47.554;7.844;2022-12-07T00:36:25;97936.69;;;2.33;100.00
50790;BME280;37287;47.554;7.844;2022-12-07T00:38:54;97932.44;;;2.32;100.00
50790;BME280;37287;47.554;7.844;2022-12-07T00:41:23;97936.25;;;2.31;100.00
50790;BME280;37287;47.554;7.844;2022-12-07T00:43:50;97934.66;;;2.30;100.00
50790;BME280;37287;47.554;7.844;2022-12-07T00:46:22;97924.75;;;2.30;100.00
50790;BME280;37287;47.554;7.844;2022-12-07T00:48:50;97930.09;;;2.30;100.00
50790;BME280;37287;47.554;7.844;2022-12-07T00:51:19;97922.41;;;2.29;100.00
50790;BME280;37287;47.554;7.844;2022-12-07T00:53:47;97925.88;;;2.29;100.00
50790;BME280;37287;47.554;7.844;2022-12-07T00:56:17;97927.75;;;2.29;100.00
50790;BME280;37287;47.554;7.844;2022-12-07T00:58:54;97927.28;;;2.27;100.00
50790;BME280;37287;47.554;7.844;2022-12-07T01:01:22;97927.75;;;2.29;100.00
50790;BME280;37287;47.554;7.844;2022-12-07T01:03:49;97920.84;;;2.28;100.00
50790;BME280;37287;47.554;7.844;2022-12-07T01:06:17;97930.75;;;2.27;100.00
50790;BME280;37287;47.554;7.844;2022-12-07T01:08:46;97928.38;;;2.26;100.00
50790;BME280;37287;47.554;7.844;2022-12-07T01:11:15;97928.38;;;2.26;100.00
50790;BME280;37287;47.554;7.844;2022-12-07T01:13:43;97925.72;;;2.26;100.00
50790;BME280;37287;47.554;7.844;2022-12-07T01:16:13;97927.94;;;2.23;100.00
50790;BME280;37287;47.554;7.844;2022-12-07T01:18:46;97925.25;;;2.23;100.00
50790;BME280;37287;47.554;7.844;2022-12-07T01:21:18;97923.69;;;2.22;100.00
50790;BME280;37287;47.554;7.844;2022-12-07T01:23:47;97930.59;;;2.23;100.00
50790;BME280;37287;47.554;7.844;2022-12-07T01:26:17;97929.47;;;2.24;100.00
50790;BME280;37287;47.554;7.844;2022-12-07T01:28:49;97925.25;;;2.23;100.00
50790;BME280;37287;47.554;7.844;2022-12-07T01:31:21;97930.59;;;2.23;100.00
50790;BME280;37287;47.554;7.844;2022-12-07T01:33:51;97929.81;;;2.23;100.00
50790;BME280;37287;47.554;7.844;2022-12-07T01:36:31;97929.03;;;2.22;100.00
50790;BME280;37287;47.554;7.844;2022-12-07T01:39:01;97933.28;;;2.23;100.00
50790;BME280;37287;47.554;7.844;2022-12-07T01:41:32;97931.69;;;2.22;100.00
50790;BME280;37287;47.554;7.844;2022-12-07T01:44:19;97931.69;;;2.22;100.00
50790;BME280;37287;47.554;7.844;2022-12-07T01:49:43;97932.03;;;2.21;100.00
50790;BME280;37287;47.554;7.844;2022-12-07T01:52:16;97929.34;;;2.21;100.00
50790;BME280;37287;47.554;7.844;2022-12-07T01:54:47;97932.78;;;2.21;100.00
50790;BME280;37287;47.554;7.844;2022-12-07T01:57:21;97932.03;;;2.21;100.00
50790;BME280;37287;47.554;7.844;2022-12-07T01:59:55;97936.88;;;2.19;100.00
50790;BME280;37287;47.554;7.844;2022-12-07T02:02:51;97933.13;;;2.20;100.00
50790;BME280;37287;47.554;7.844;2022-12-07T02:05:20;97938.78;;;2.18;100.00
50790;BME280;37287;47.554;7.844;2022-12-07T02:07:47;97937.19;;;2.17;100.00
50790;BME280;37287;47.554;7.844;2022-12-07T02:10:23;97936.44;;;2.17;100.00
50790;BME280;37287;47.554;7.844;2022-12-07T02:13:06;97936.44;;;2.17;100.00
50790;BME280;37287;47.554;7.844;2022-12-07T02:18:46;97935.50;;;2.13;100.00
50790;BME280;37287;47.554;7.844;2022-12-07T02:31:56;97927.50;;;2.04;100.00
50790;BME280;37287;47.554;7.844;2022-12-07T02:34:37;97919.00;;;2.02;100.00
50790;BME280;37287;47.554;7.844;2022-12-07T02:39:51;97915.09;;;1.99;100.00
50790;BME280;37287;47.554;7.844;2022-12-07T02:42:28;97908.97;;;1.99;100.00
50790;BME280;37287;47.554;7.844;2022-12-07T02:44:56;97911.19;;;1.97;100.00
50790;BME280;37287;47.554;7.844;2022-12-07T02:47:26;97916.97;;;1.99;100.00
50790;BME280;37287;47.554;7.844;2022-12-07T02:49:53;97913.53;;;1.98;100.00
50790;BME280;37287;47.554;7.844;2022-12-07T02:52:22;97911.97;;;1.97;100.00
50790;BME280;37287;47.554;7.844;2022-12-07T02:54:51;97918.06;;;1.98;100.00
50790;BME280;37287;47.554;7.844;2022-12-07T03:00:09;97922.66;;;1.97;100.00
50790;BME280;37287;47.554;7.844;2022-12-07T03:02:57;97921.88;;;1.97;100.00
50790;BME280;37287;47.554;7.844;2022-12-07T03:08:06;97915.72;;;1.96;100.00
50790;BME280;37287;47.554;7.844;2022-12-07T03:11:08;97917.63;;;1.96;100.00
50790;BME280;37287;47.554;7.844;2022-12-07T03:16:15;97911.03;;;1.93;100.00
50790;BME280;37287;47.554;7.844;2022-12-07T03:18:54;97915.59;;;1.93;100.00
50790;BME280;37287;47.554;7.844;2022-12-07T03:21:25;97920.94;;;1.93;100.00
50790;BME280;37287;47.554;7.844;2022-12-07T03:23:58;97911.34;;;1.92;100.00
50790;BME280;37287;47.554;7.844;2022-12-07T03:26:32;97920.13;;;1.92;100.00
50790;BME280;37287;47.554;7.844;2022-12-07T03:30:08;97913.25;;;1.91;100.00
50790;BME280;37287;47.554;7.844;2022-12-07T03:32:57;97906.31;;;1.90;100.00
50790;BME280;37287;47.554;7.844;2022-12-07T03:35:21;97907.91;;;1.91;100.00
50790;BME280;37287;47.554;7.844;2022-12-07T03:37:57;97907.91;;;1.91;100.00
50790;BME280;37287;47.554;7.844;2022-12-07T03:40:32;97905.56;;;1.89;100.00
50790;BME280;37287;47.554;7.844;2022-12-07T03:43:03;97904.44;;;1.91;100.00
50790;BME280;37287;47.554;7.844;2022-12-07T03:45:39;97907.09;;;1.91;100.00
50790;BME280;37287;47.554;7.844;2022-12-07T03:48:35;97908.22;;;1.89;100.00
50790;BME280;37287;47.554;7.844;2022-12-07T03:51:20;97921.56;;;1.89;100.00
50790;BME280;37287;47.554;7.844;2022-12-07T03:56:39;97915.44;;;1.89;100.00
50790;BME280;37287;47.554;7.844;2022-12-07T03:59:09;97920.00;;;1.88;100.00
50790;BME280;37287;47.554;7.844;2022-12-07T04:01:36;97913.84;;;1.88;100.00
50790;BME280;37287;47.554;7.844;2022-12-07T04:04:03;97908.22;;;1.89;100.00
50790;BME280;37287;47.554;7.844;2022-12-07T04:06:31;97915.75;;;1.87;100.00
50790;BME280;37287;47.554;7.844;2022-12-07T04:08:58;97924.84;;;1.86;100.00
50790;BME280;37287;47.554;7.844;2022-12-07T04:11:25;97907.75;;;1.87;100.00
50790;BME280;37287;47.554;7.844;2022-12-07T04:13:51;97917.66;;;1.87;100.00
50790;BME280;37287;47.554;7.844;2022-12-07T04:16:36;97906.16;;;1.86;100.00
50790;BME280;37287;47.554;7.844;2022-12-07T04:19:09;97907.75;;;1.87;100.00
50790;BME280;37287;47.554;7.844;2022-12-07T04:21:38;97900.97;;;1.90;100.00
50790;BME280;37287;47.554;7.844;2022-12-07T04:24:13;97892.19;;;1.89;100.00
50790;BME280;37287;47.554;7.844;2022-12-07T04:26:41;97900.22;;;1.89;100.00
50790;BME280;37287;47.554;7.844;2022-12-07T04:29:08;97904.75;;;1.89;100.00
50790;BME280;37287;47.554;7.844;2022-12-07T04:31:42;97900.22;;;1.89;100.00
50790;BME280;37287;47.554;7.844;2022-12-07T04:34:09;97902.41;;;1.87;100.00
50790;BME280;37287;47.554;7.844;2022-12-07T04:36:36;97897.84;;;1.88;100.00
50790;BME280;37287;47.554;7.844;2022-12-07T04:39:07;97898.63;;;1.88;100.00
50790;BME280;37287;47.554;7.844;2022-12-07T04:41:37;97888.72;;;1.89;100.00
50790;BME280;37287;47.554;7.844;2022-12-07T04:44:04;97894.88;;;1.89;100.00
50790;BME280;37287;47.554;7.844;2022-12-07T04:46:35;97894.88;;;1.89;100.00
50790;BME280;37287;47.554;7.844;2022-12-07T04:49:04;97889.53;;;1.89;100.00
50790;BME280;37287;47.554;7.844;2022-12-07T04:51:30;97886.88;;;1.89;100.00
50790;BME280;37287;47.554;7.844;2022-12-07T04:53:57;97889.53;;;1.89;100.00
50790;BME280;37287;47.554;7.844;2022-12-07T04:56:24;97892.97;;;1.90;100.00
50790;BME280;37287;47.554;7.844;2022-12-07T04:58:53;97889.53;;;1.89;100.00
50790;BME280;37287;47.554;7.844;2022-12-07T05:01:22;97888.72;;;1.89;100.00
50790;BME280;37287;47.554;7.844;2022-12-07T05:03:50;97887.97;;;1.88;100.00
50790;BME280;37287;47.554;7.844;2022-12-07T05:06:16;97893.28;;;1.88;100.00
50790;BME280;37287;47.554;7.844;2022-12-07T05:08:45;97901.75;;;1.91;100.00
50790;BME280;37287;47.554;7.844;2022-12-07T05:11:14;97901.75;;;1.91;100.00
50790;BME280;37287;47.554;7.844;2022-12-07T05:14:00;97896.91;;;1.93;100.00
50790;BME280;37287;47.554;7.844;2022-12-07T05:16:27;97903.34;;;1.92;100.00
50790;BME280;37287;47.554;7.844;2022-12-07T05:18:54;97897.22;;;1.91;100.00
50790;BME280;37287;47.554;7.844;2022-12-07T05:21:22;97898.00;;;1.92;100.00
50790;BME280;37287;47.554;7.844;2022-12-07T05:23:49;97902.56;;;1.91;100.00
50790;BME280;37287;47.554;7.844;2022-12-07T05:26:16;97902.56;;;1.91;100.00
50790;BME280;37287;47.554;7.844;2022-12-07T05:28:43;97900.22;;;1.89;100.00
50790;BME280;37287;47.554;7.844;2022-12-07T05:31:10;97899.41;;;1.89;100.00
50790;BME280;37287;47.554;7.844;2022-12-07T05:33:37;97893.28;;;1.88;100.00
50790;BME280;37287;47.554;7.844;2022-12-07T05:36:05;97901.31;;;1.88;100.00
50790;BME280;37287;47.554;7.844;2022-12-07T05:38:33;97898.63;;;1.88;100.00
50790;BME280;37287;47.554;7.844;2022-12-07T05:41:04;97892.81;;;1.86;100.00
50790;BME280;37287;47.554;7.844;2022-12-07T05:43:33;97894.72;;;1.86;100.00
50790;BME280;37287;47.554;7.844;2022-12-07T05:46:02;97897.06;;;1.87;100.00
50790;BME280;37287;47.554;7.844;2022-12-07T05:48:29;97898.16;;;1.86;100.00
50790;BME280;37287;47.554;7.844;2022-12-07T05:50:59;97906.16;;;1.86;100.00
50790;BME280;37287;47.554;7.844;2022-12-07T05:53:26;97903.50;;;1.86;100.00
50790;BME280;37287;47.554;7.844;2022-12-07T05:55:52;97897.06;;;1.87;100.00
50790;BME280;37287;47.554;7.844;2022-12-07T05:58:19;97895.47;;;1.86;100.00
50790;BME280;37287;47.554;7.844;2022-12-07T06:01:04;97902.72;;;1.86;100.00
50790;BME280;37287;47.554;7.844;2022-12-07T06:03:31;97906.97;;;1.87;100.00
50790;BME280;37287;47.554;7.844;2022-12-07T06:05:58;97897.38;;;1.86;100.00
50790;BME280;37287;47.554;7.844;2022-12-07T06:08:25;97900.38;;;1.84;100.00
50790;BME280;37287;47.554;7.844;2022-12-07T06:10:51;97901.94;;;1.85;100.00
50790;BME280;37287;47.554;7.844;2022-12-07T06:13:38;97900.38;;;1.84;100.00
50790;BME280;37287;47.554;7.844;2022-12-07T06:16:12;97901.47;;;1.83;100.00
50790;BME280;37287;47.554;7.844;2022-12-07T06:18:38;97907.59;;;1.84;100.00
50790;BME280;37287;47.554;7.844;2022-12-07T06:21:07;97901.63;;;1.87;100.00
50790;BME280;37287;47.554;7.844;2022-12-07T06:23:38;97904.63;;;1.85;100.00
50790;BME280;37287;47.554;7.844;2022-12-07T06:26:05;97906.97;;;1.87;100.00
50790;BME280;37287;47.554;7.844;2022-12-07T06:28:31;97913.41;;;1.86;100.00
50790;BME280;37287;47.554;7.844;2022-12-07T06:31:01;97904.63;;;1.85;100.00
50790;BME280;37287;47.554;7.844;2022-12-07T06:33:33;97904.63;;;1.85;100.00
50790;BME280;37287;47.554;7.844;2022-12-07T06:36:06;97903.81;;;1.85;100.00
50790;BME280;37287;47.554;7.844;2022-12-07T06:38:33;97914.50;;;1.85;100.00
50790;BME280;37287;47.554;7.844;2022-12-07T06:41:02;97910.72;;;1.86;100.00
50790;BME280;37287;47.554;7.844;2022-12-07T06:43:30;97903.03;;;1.84;100.00
50790;BME280;37287;47.554;7.844;2022-12-07T06:45:59;97909.94;;;1.85;100.00
50790;BME280;37287;47.554;7.844;2022-12-07T06:48:26;97905.38;;;1.86;100.00
50790;BME280;37287;47.554;7.844;2022-12-07T06:50:52;97906.16;;;1.86;100.00
50790;BME280;37287;47.554;7.844;2022-12-07T06:53:21;97906.97;;;1.87;100.00
50790;BME280;37287;47.554;7.844;2022-12-07T06:55:48;97911.50;;;1.86;100.00
50790;BME280;37287;47.554;7.844;2022-12-07T06:58:15;97908.22;;;1.89;100.00
50790;BME280;37287;47.554;7.844;2022-12-07T07:00:42;97905.56;;;1.89;100.00
50790;BME280;37287;47.554;7.844;2022-12-07T07:03:09;97902.56;;;1.91;100.00
50790;BME280;37287;47.554;7.844;2022-12-07T07:05:36;97904.09;;;1.92;100.00
50790;BME280;37287;47.554;7.844;2022-12-07T07:08:02;97904.91;;;1.93;100.00
50790;BME280;37287;47.554;7.844;2022-12-07T07:10:51;97905.69;;;1.93;100.00
50790;BME280;37287;47.554;7.844;2022-12-07T07:13:24;97907.25;;;1.94;100.00
50790;BME280;37287;47.554;7.844;2022-12-07T07:15:51;97909.94;;;1.94;100.00
50790;BME280;37287;47.554;7.844;2022-12-07T07:18:17;97914.19;;;1.95;100.00
50790;BME280;37287;47.554;7.844;2022-12-07T07:20:46;97924.88;;;1.95;100.00
50790;BME280;37287;47.554;7.844;2022-12-07T07:23:14;97917.31;;;1.97;100.00
50790;BME280;37287;47.554;7.844;2022-12-07T07:25:41;97918.88;;;1.98;100.00
50790;BME280;37287;47.554;7.844;2022-12-07T07:28:09;97919.81;;;2.02;100.00
50790;BME280;37287;47.554;7.844;2022-12-07T07:30:36;97921.69;;;2.02;100.00
50790;BME280;37287;47.554;7.844;2022-12-07T07:33:04;97921.38;;;2.03;100.00
50790;BME280;37287;47.554;7.844;2022-12-07T07:35:32;97927.50;;;2.04;100.00
50790;BME280;37287;47.554;7.844;2022-12-07T07:38:00;97921.84;;;2.05;100.00
50790;BME280;37287;47.554;7.844;2022-12-07T07:40:27;97933.78;;;2.08;100.00
50790;BME280;37287;47.554;7.844;2022-12-07T07:42:56;97929.66;;;2.11;100.00
50790;BME280;37287;47.554;7.844;2022-12-07T07:45:24;97939.09;;;2.17;100.00
50790;BME280;37287;47.554;7.844;2022-12-07T07:47:53;97935.63;;;2.16;100.00
50790;BME280;37287;47.554;7.844;2022-12-07T07:50:26;97937.69;;;2.19;100.00
50790;BME280;37287;47.554;7.844;2022-12-07T07:52:53;97943.47;;;2.21;100.00
50790;BME280;37287;47.554;7.844;2022-12-07T07:55:19;97941.59;;;2.22;100.00
50790;BME280;37287;47.554;7.844;2022-12-07T07:57:46;97941.91;;;2.20;100.00
50790;BME280;37287;47.554;7.844;2022-12-07T08:00:21;97937.69;;;2.19;100.00
50790;BME280;37287;47.554;7.844;2022-12-07T08:02:59;97941.59;;;2.22;100.00
50790;BME280;37287;47.554;7.844;2022-12-07T08:05:25;97941.41;;;2.27;100.00
50790;BME280;37287;47.554;7.844;2022-12-07T08:07:52;97943.78;;;2.29;100.00
50790;BME280;37287;47.554;7.844;2022-12-07T08:10:20;97942.22;;;2.28;100.00
50790;BME280;37287;47.554;7.844;2022-12-07T08:12:47;97944.56;;;2.29;100.00
50790;BME280;37287;47.554;7.844;2022-12-07T08:15:36;97948.19;;;2.33;100.00
50790;BME280;37287;47.554;7.844;2022-12-07T08:18:03;97949.56;;;2.39;100.00
50790;BME280;37287;47.554;7.844;2022-12-07T08:20:31;97951.28;;;2.44;100.00
50790;BME280;37287;47.554;7.844;2022-12-07T08:23:00;97944.66;;;2.50;100.00
50790;BME280;37287;47.554;7.844;2022-12-07T08:25:27;97949.16;;;2.58;100.00
50790;BME280;37287;47.554;7.844;2022-12-07T08:27:54;97947.44;;;2.63;100.00
50790;BME280;37287;47.554;7.844;2022-12-07T08:30:24;97944.44;;;2.64;100.00
50790;BME280;37287;47.554;7.844;2022-12-07T08:32:51;97950.59;;;2.65;100.00
50790;BME280;37287;47.554;7.844;2022-12-07T08:35:18;97952.56;;;2.77;100.00
50790;BME280;37287;47.554;7.844;2022-12-07T08:37:45;97946.34;;;2.93;100.00
50790;BME280;37287;47.554;7.844;2022-12-07T08:40:13;97947.72;;;3.00;100.00
50790;BME280;37287;47.554;7.844;2022-12-07T08:42:42;97948.34;;;3.05;100.00
50790;BME280;37287;47.554;7.844;2022-12-07T08:45:13;97957.41;;;3.13;100.00
50790;BME280;37287;47.554;7.844;2022-12-07T08:47:45;97959.91;;;3.18;100.00
50790;BME280;37287;47.554;7.844;2022-12-07T08:50:13;97959.44;;;3.16;100.00
50790;BME280;37287;47.554;7.844;2022-12-07T08:52:41;97960.34;;;3.20;100.00
50790;BME280;37287;47.554;7.844;2022-12-07T08:55:10;97961.78;;;3.18;100.00
50790;BME280;37287;47.554;7.844;2022-12-07T08:57:38;97967.00;;;3.14;100.00
50790;BME280;37287;47.554;7.844;2022-12-07T09:00:08;97971.44;;;3.10;100.00
50790;BME280;37287;47.554;7.844;2022-12-07T09:02:36;97976.00;;;3.09;100.00
50790;BME280;37287;47.554;7.844;2022-12-07T09:05:03;97971.44;;;3.10;100.00
50790;BME280;37287;47.554;7.844;2022-12-07T09:07:32;97976.63;;;3.06;100.00
50790;BME280;37287;47.554;7.844;2022-12-07T09:10:00;97971.38;;;2.89;100.00
50790;BME280;37287;47.554;7.844;2022-12-07T09:12:27;97976.59;;;2.85;100.00
50790;BME280;37287;47.554;7.844;2022-12-07T09:14:56;97980.06;;;2.77;100.00
50790;BME280;37287;47.554;7.844;2022-12-07T09:17:23;97980.56;;;2.79;100.00
50790;BME280;37287;47.554;7.844;2022-12-07T09:19:49;97981.00;;;2.81;100.00
50790;BME280;37287;47.554;7.844;2022-12-07T09:22:16;97980.84;;;2.86;100.00
50790;BME280;37287;47.554;7.844;2022-12-07T09:24:46;97983.50;;;2.86;100.00
50790;BME280;37287;47.554;7.844;2022-12-07T09:27:13;97985.84;;;2.88;100.00
50790;BME280;37287;47.554;7.844;2022-12-07T09:29:43;97982.22;;;2.92;100.00
50790;BME280;37287;47.554;7.844;2022-12-07T09:32:10;97982.50;;;3.00;100.00
50790;BME280;37287;47.554;7.844;2022-12-07T09:34:37;97978.00;;;3.21;100.00
50790;BME280;37287;47.554;7.844;2022-12-07T09:37:04;97982.31;;;3.35;100.00
50790;BME280;37287;47.554;7.844;2022-12-07T09:39:31;97978.06;;;3.55;100.00
50790;BME280;37287;47.554;7.844;2022-12-07T09:41:58;97981.59;;;3.47;100.00
50790;BME280;37287;47.554;7.844;2022-12-07T09:44:35;97983.97;;;3.48;100.00
50790;BME280;37287;47.554;7.844;2022-12-07T09:47:02;97984.91;;;3.43;100.00
50790;BME280;37287;47.554;7.844;2022-12-07T09:49:31;97984.72;;;3.49;100.00
50790;BME280;37287;47.554;7.844;2022-12-07T09:52:18;97982.31;;;3.35;100.00
50790;BME280;37287;47.554;7.844;2022-12-07T09:54:48;97976.47;;;3.12;100.00
50790;BME280;37287;47.554;7.844;2022-12-07T09:57:15;97978.06;;;3.04;100.00
50790;BME280;37287;47.554;7.844;2022-12-07T09:59:42;97976.97;;;3.05;100.00
50790;BME280;37287;47.554;7.844;2022-12-07T10:02:35;97972.91;;;2.99;100.00
50790;BME280;37287;47.554;7.844;2022-12-07T10:05:07;97971.50;;;2.92;100.00
50790;BME280;37287;47.554;7.844;2022-12-07T10:07:36;97969.50;;;2.89;100.00
50790;BME280;37287;47.554;7.844;2022-12-07T10:10:13;97960.97;;;2.96;100.00
50790;BME280;37287;47.554;7.844;2022-12-07T10:12:54;97962.41;;;2.93;100.00
50790;BME280;37287;47.554;7.844;2022-12-07T10:15:21;97960.97;;;2.96;100.00
50790;BME280;37287;47.554;7.844;2022-12-07T10:17:51;97960.59;;;3.06;100.00
50790;BME280;37287;47.554;7.844;2022-12-07T10:20:24;97961.56;;;3.02;100.00
50790;BME280;37287;47.554;7.844;2022-12-07T10:22:58;97952.25;;;3.08;100.00
50790;BME280;37287;47.554;7.844;2022-12-07T10:25:29;97953.69;;;3.26;100.00
50790;BME280;37287;47.554;7.844;2022-12-07T10:30:30;97943.41;;;3.37;100.00
50790;BME280;37287;47.554;7.844;2022-12-07T10:32:58;97945.41;;;3.19;100.00
50790;BME280;37287;47.554;7.844;2022-12-07T10:35:29;97938.03;;;3.16;100.00
50790;BME280;37287;47.554;7.844;2022-12-07T10:37:58;97934.19;;;3.26;100.00
50790;BME280;37287;47.554;7.844;2022-12-07T10:40:35;97943.00;;;3.26;100.00
50790;BME280;37287;47.554;7.844;2022-12-07T10:51:27;97932.84;;;3.41;100.00
50790;BME280;37287;47.554;7.844;2022-12-07T11:00:03;97924.75;;;3.29;99.73
50790;BME280;37287;47.554;7.844;2022-12-07T11:02:42;97921.97;;;3.16;99.40
50790;BME280;37287;47.554;7.844;2022-12-07T11:05:27;97917.69;;;3.24;100.00
50790;BME280;37287;47.554;7.844;2022-12-07T11:08:13;97918.47;;;3.24;100.00
50790;BME280;37287;47.554;7.844;2022-12-07T11:13:22;97910.31;;;3.21;99.75
50790;BME280;37287;47.554;7.844;2022-12-07T11:16:16;97901.97;;;3.22;100.00
50790;BME280;37287;47.554;7.844;2022-12-07T11:19:15;97916.38;;;3.09;100.00
50790;BME280;37287;47.554;7.844;2022-12-07T11:21:58;97908.81;;;3.11;100.00
50790;BME280;37287;47.554;7.844;2022-12-07T11:24:33;97904.19;;;3.20;100.00
50790;BME280;37287;47.554;7.844;2022-12-07T11:30:19;97902.84;;;3.48;96.46
50790;BME280;37287;47.554;7.844;2022-12-07T11:33:13;97892.97;;;3.60;94.33
50790;BME280;37287;47.554;7.844;2022-12-07T11:36:00;97894.31;;;3.54;91.92
50790;BME280;37287;47.554;7.844;2022-12-07T11:38:42;97881.88;;;3.71;93.89
50790;BME280;37287;47.554;7.844;2022-12-07T11:41:22;97873.44;;;3.81;93.20
50790;BME280;37287;47.554;7.844;2022-12-07T11:44:22;97865.66;;;4.01;92.72
50790;BME280;37287;47.554;7.844;2022-12-07T11:47:11;97864.94;;;4.50;89.47
50790;BME280;37287;47.554;7.844;2022-12-07T11:52:22;97861.47;;;4.74;87.43
50790;BME280;37287;47.554;7.844;2022-12-07T11:54:53;97854.97;;;4.87;88.07
50790;BME280;37287;47.554;7.844;2022-12-07T11:57:42;97855.31;;;4.86;84.45
50790;BME280;37287;47.554;7.844;2022-12-07T12:00:17;97851.16;;;4.88;84.32
50790;BME280;37287;47.554;7.844;2022-12-07T12:05:27;97857.50;;;4.96;82.41
50790;BME280;37287;47.554;7.844;2022-12-07T12:11:15;97846.75;;;4.43;86.34
50790;BME280;37287;47.554;7.844;2022-12-07T12:25:45;97826.50;;;5.23;85.33
50790;BME280;37287;47.554;7.844;2022-12-07T12:33:50;97827.56;;;5.06;85.73
50790;BME280;37287;47.554;7.844;2022-12-07T12:39:09;97820.09;;;5.56;79.10
50790;BME280;37287;47.554;7.844;2022-12-07T12:46:58;97813.81;;;5.36;79.08
50790;BME280;37287;47.554;7.844;2022-12-07T12:59:34;97805.53;;;5.57;84.39
50790;BME280;37287;47.554;7.844;2022-12-07T13:02:39;97801.72;;;5.58;81.50
50790;BME280;37287;47.554;7.844;2022-12-07T13:12:59;97791.47;;;4.91;81.84
50790;BME280;37287;47.554;7.844;2022-12-07T13:15:39;97784.25;;;4.79;82.80
50790;BME280;37287;47.554;7.844;2022-12-07T13:29:17;97777.34;;;4.54;86.04
50790;BME280;37287;47.554;7.844;2022-12-07T13:31:54;97773.47;;;4.39;86.05
50790;BME280;37287;47.554;7.844;2022-12-07T13:34:35;97772.38;;;4.27;86.58
50790;BME280;37287;47.554;7.844;2022-12-07T13:39:51;97769.25;;;4.13;86.41
50790;BME280;37287;47.554;7.844;2022-12-07T13:44:51;97763.41;;;3.99;87.33
50790;BME280;37287;47.554;7.844;2022-12-07T13:49:58;97757.72;;;4.25;86.77
50790;BME280;37287;47.554;7.844;2022-12-07T13:52:27;97756.34;;;4.56;87.16
50790;BME280;37287;47.554;7.844;2022-12-07T13:54:58;97749.66;;;4.90;86.70
50790;BME280;37287;47.554;7.844;2022-12-07T13:57:29;97753.81;;;5.16;85.06
50790;BME280;37287;47.554;7.844;2022-12-07T13:59:57;97757.31;;;5.32;83.47
50790;BME280;37287;47.554;7.844;2022-12-07T14:05:14;97759.97;;;5.77;81.22
50790;BME280;37287;47.554;7.844;2022-12-07T14:13:32;97751.22;;;6.12;75.32
50790;BME280;37287;47.554;7.844;2022-12-07T14:18:44;97752.53;;;6.18;78.68
50790;BME280;37287;47.554;7.844;2022-12-07T14:21:19;97750.69;;;6.38;77.79
50790;BME280;37287;47.554;7.844;2022-12-07T14:24:22;97749.22;;;6.41;73.43
50790;BME280;37287;47.554;7.844;2022-12-07T14:26:50;97754.81;;;6.51;76.11
50790;BME280;37287;47.554;7.844;2022-12-07T14:29:32;97746.06;;;6.39;76.08
50790;BME280;37287;47.554;7.844;2022-12-07T14:32:24;97746.72;;;6.16;78.80
50790;BME280;37287;47.554;7.844;2022-12-07T14:35:11;97745.44;;;6.10;80.58
50790;BME280;37287;47.554;7.844;2022-12-07T14:37:41;97744.75;;;6.13;81.64
50790;BME280;37287;47.554;7.844;2022-12-07T14:42:46;97741.16;;;5.77;81.00
50790;BME280;37287;47.554;7.844;2022-12-07T14:45:19;97739.69;;;5.63;77.78
50790;BME280;37287;47.554;7.844;2022-12-07T14:47:48;97737.53;;;5.53;78.15
50790;BME280;37287;47.554;7.844;2022-12-07T14:50:41;97734.50;;;5.55;79.22
50790;BME280;37287;47.554;7.844;2022-12-07T14:53:35;97739.16;;;5.42;77.38
50790;BME280;37287;47.554;7.844;2022-12-07T14:56:03;97737.50;;;5.37;78.73
50790;BME280;37287;47.554;7.844;2022-12-07T14:58:32;97740.59;;;5.23;78.29
50790;BME280;37287;47.554;7.844;2022-12-07T15:00:59;97728.00;;;5.11;77.64
50790;BME280;37287;47.554;7.844;2022-12-07T15:03:26;97734.63;;;5.02;77.98
50790;BME280;37287;47.554;7.844;2022-12-07T15:05:55;97734.22;;;4.99;78.02
50790;BME280;37287;47.554;7.844;2022-12-07T15:08:24;97738.59;;;4.92;80.26
50790;BME280;37287;47.554;7.844;2022-12-07T15:10:50;97734.72;;;4.89;80.78
50790;BME280;37287;47.554;7.844;2022-12-07T15:13:17;97742.66;;;4.73;80.87
50790;BME280;37287;47.554;7.844;2022-12-07T15:16:02;97734.56;;;4.57;81.35
50790;BME280;37287;47.554;7.844;2022-12-07T15:18:29;97735.03;;;4.47;81.16
50790;BME280;37287;47.554;7.844;2022-12-07T15:20:58;97732.81;;;4.37;83.32
50790;BME280;37287;47.554;7.844;2022-12-07T15:23:25;97732.94;;;4.28;84.46
50790;BME280;37287;47.554;7.844;2022-12-07T15:25:55;97730.84;;;4.09;84.13
50790;BME280;37287;47.554;7.844;2022-12-07T15:28:22;97729.16;;;3.92;84.50
50790;BME280;37287;47.554;7.844;2022-12-07T15:30:48;97734.63;;;3.83;85.94
50790;BME280;37287;47.554;7.844;2022-12-07T15:33:17;97726.69;;;3.74;86.81
50790;BME280;37287;47.554;7.844;2022-12-07T15:35:46;97729.38;;;3.62;87.92
50790;BME280;37287;47.554;7.844;2022-12-07T15:38:18;97727.44;;;3.50;88.57
50790;BME280;37287;47.554;7.844;2022-12-07T15:41:04;97725.97;;;3.40;88.55
50790;BME280;37287;47.554;7.844;2022-12-07T15:43:31;97730.75;;;3.35;89.09
50790;BME280;37287;47.554;7.844;2022-12-07T15:46:16;97726.72;;;3.29;89.93
50790;BME280;37287;47.554;7.844;2022-12-07T15:48:45;97725.69;;;3.21;90.44
50790;BME280;37287;47.554;7.844;2022-12-07T15:51:11;97724.03;;;3.16;91.27